createdAt,value
2022-11-07T00:00:03.081Z,11.10
2022-11-07T00:02:30.551Z,10.99
2022-11-07T00:04:57.379Z,11.04
2022-11-07T00:07:24.251Z,10.98
2022-11-07T00:09:53.070Z,10.96
2022-11-07T00:12:19.836Z,10.97
2022-11-07T00:14:51.918Z,10.89
2022-11-07T00:17:21.710Z,10.92
2022-11-07T00:19:51.411Z,10.96
2022-11-07T00:22:18.250Z,10.97
2022-11-07T00:24:50.272Z,10.96
2022-11-07T00:27:17.059Z,10.88
2022-11-07T00:29:49.995Z,10.86
2022-11-07T00:32:16.637Z,10.90
2022-11-07T00:34:46.370Z,10.81
2022-11-07T00:37:16.112Z,10.96
2022-11-07T00:39:44.253Z,10.94
2022-11-07T00:42:10.984Z,10.98
2022-11-07T00:44:37.851Z,11.24
2022-11-07T00:47:04.766Z,11.17
2022-11-07T00:49:31.769Z,11.14
2022-11-07T00:52:10.545Z,10.99
2022-11-07T00:54:37.376Z,10.99
2022-11-07T00:57:04.472Z,11.05
2022-11-07T00:59:35.223Z,10.97
2022-11-07T01:02:04.036Z,10.97
2022-11-07T01:04:55.183Z,10.92
2022-11-07T01:07:28.774Z,10.95
2022-11-07T01:09:55.559Z,11.01
2022-11-07T01:12:22.346Z,11.01
2022-11-07T01:14:51.769Z,10.99
2022-11-07T01:17:18.528Z,10.83
2022-11-07T01:19:50.337Z,10.88
2022-11-07T01:22:20.715Z,11.07
2022-11-07T01:24:47.743Z,11.02
2022-11-07T01:27:15.056Z,10.90
2022-11-07T01:29:44.785Z,10.87
2022-11-07T01:32:19.157Z,11.05
2022-11-07T01:34:49.816Z,10.99
2022-11-07T01:37:19.567Z,10.93
2022-11-07T01:39:46.495Z,11.40
2022-11-07T01:42:17.602Z,11.17
2022-11-07T01:44:57.849Z,11.02
2022-11-07T01:47:29.997Z,10.91
2022-11-07T01:49:59.636Z,11.03
2022-11-07T01:52:35.073Z,10.98
2022-11-07T01:55:05.455Z,11.00
2022-11-07T01:58:04.454Z,11.06
2022-11-07T02:00:40.091Z,10.94
2022-11-07T02:03:15.684Z,10.96
2022-11-07T02:05:52.142Z,10.93
2022-11-07T02:08:22.541Z,11.03
2022-11-07T02:10:49.849Z,11.09
2022-11-07T02:13:26.167Z,11.11
2022-11-07T02:15:56.930Z,10.95
2022-11-07T02:18:28.715Z,11.03
2022-11-07T02:21:04.755Z,11.08
2022-11-07T02:23:50.117Z,11.24
2022-11-07T02:26:18.110Z,11.41
2022-11-07T02:28:50.394Z,11.22
2022-11-07T02:31:20.463Z,11.25
2022-11-07T02:33:47.358Z,11.41
2022-11-07T02:36:20.816Z,11.21
2022-11-07T02:38:57.416Z,11.33
2022-11-07T02:41:34.898Z,11.18
2022-11-07T02:44:11.348Z,11.31
2022-11-07T02:46:39.964Z,11.12
2022-11-07T02:49:13.929Z,11.11
2022-11-07T02:51:40.866Z,11.21
2022-11-07T02:54:13.085Z,11.22
2022-11-07T02:56:43.701Z,11.38
2022-11-07T02:59:13.291Z,11.27
2022-11-07T03:01:43.303Z,11.36
2022-11-07T03:04:15.309Z,11.26
2022-11-07T03:06:47.392Z,11.18
2022-11-07T03:09:14.277Z,11.17
2022-11-07T03:11:50.238Z,11.12
2022-11-07T03:14:16.948Z,11.08
2022-11-07T03:16:43.786Z,11.09
2022-11-07T03:19:10.559Z,11.09
2022-11-07T03:21:38.919Z,10.94
2022-11-07T03:24:06.270Z,11.08
2022-11-07T03:26:35.834Z,11.03
2022-11-07T03:29:06.843Z,10.83
2022-11-07T03:31:37.270Z,10.79
2022-11-07T03:34:08.960Z,10.66
2022-11-07T03:36:38.330Z,10.79
2022-11-07T03:39:10.979Z,10.49
2022-11-07T03:41:38.500Z,10.59
2022-11-07T03:44:16.268Z,10.61
2022-11-07T03:46:43.213Z,10.62
2022-11-07T03:49:13.058Z,10.64
2022-11-07T03:51:39.762Z,10.78
2022-11-07T03:54:11.268Z,10.86
2022-11-07T03:56:40.861Z,10.73
2022-11-07T03:59:07.504Z,10.58
2022-11-07T04:01:34.854Z,10.41
2022-11-07T04:04:01.758Z,10.44
2022-11-07T04:06:33.314Z,10.66
2022-11-07T04:08:59.970Z,10.51
2022-11-07T04:11:45.321Z,10.38
2022-11-07T04:14:30.512Z,10.34
2022-11-07T04:17:18.518Z,10.35
2022-11-07T04:19:47.447Z,10.31
2022-11-07T04:22:23.376Z,10.46
2022-11-07T04:24:52.118Z,10.53
2022-11-07T04:27:42.209Z,10.38
2022-11-07T04:30:28.773Z,10.44
2022-11-07T04:33:03.778Z,10.51
2022-11-07T04:35:35.230Z,10.44
2022-11-07T04:38:08.280Z,10.18
2022-11-07T04:40:35.176Z,10.23
2022-11-07T04:43:04.736Z,10.28
2022-11-07T04:45:31.451Z,10.24
2022-11-07T04:47:58.329Z,10.18
2022-11-07T04:50:25.110Z,10.37
2022-11-07T04:52:54.056Z,10.37
2022-11-07T04:55:25.703Z,10.28
2022-11-07T04:57:53.021Z,10.30
2022-11-07T05:00:20.914Z,10.35
2022-11-07T05:02:49.200Z,10.31
2022-11-07T05:05:21.660Z,10.20
2022-11-07T05:07:48.809Z,10.23
2022-11-07T05:10:30.493Z,10.20
2022-11-07T05:13:01.549Z,10.23
2022-11-07T05:15:28.347Z,10.17
2022-11-07T05:18:01.336Z,10.21
2022-11-07T05:20:38.854Z,10.29
2022-11-07T05:23:14.089Z,10.14
2022-11-07T05:25:53.864Z,10.14
2022-11-07T05:28:35.162Z,10.14
2022-11-07T05:31:10.734Z,10.08
2022-11-07T05:33:37.608Z,10.00
2022-11-07T05:36:28.392Z,9.95
2022-11-07T05:38:55.478Z,9.90
2022-11-07T05:41:22.624Z,9.87
2022-11-07T05:43:49.544Z,9.78
2022-11-07T05:46:16.320Z,9.98
2022-11-07T05:48:42.947Z,10.06
2022-11-07T05:51:09.868Z,9.95
2022-11-07T05:53:39.642Z,9.97
2022-11-07T05:56:11.398Z,9.91
2022-11-07T05:58:38.555Z,9.99
2022-11-07T06:01:10.474Z,9.99
2022-11-07T06:03:47.758Z,9.99
2022-11-07T06:06:14.699Z,9.90
2022-11-07T06:08:44.492Z,10.01
2022-11-07T06:11:12.525Z,10.32
2022-11-07T06:13:39.387Z,10.52
2022-11-07T06:16:06.739Z,10.35
2022-11-07T06:18:41.551Z,10.34
2022-11-07T06:21:15.965Z,10.44
2022-11-07T06:23:45.155Z,10.36
2022-11-07T06:26:14.999Z,10.22
2022-11-07T06:28:41.791Z,10.07
2022-11-07T06:31:11.656Z,10.14
2022-11-07T06:33:38.460Z,10.31
2022-11-07T06:36:10.918Z,10.61
2022-11-07T06:38:38.757Z,10.40
2022-11-07T06:41:11.842Z,10.38
2022-11-07T06:43:42.336Z,10.52
2022-11-07T06:46:12.596Z,10.66
2022-11-07T06:48:40.101Z,10.55
2022-11-07T06:51:12.370Z,10.45
2022-11-07T06:53:39.350Z,10.45
2022-11-07T06:56:07.648Z,10.64
2022-11-07T06:58:34.972Z,10.59
2022-11-07T07:01:15.530Z,10.61
2022-11-07T07:03:45.330Z,10.91
2022-11-07T07:06:16.855Z,10.88
2022-11-07T07:08:52.398Z,11.04
2022-11-07T07:11:21.165Z,11.12
2022-11-07T07:13:50.232Z,11.17
2022-11-07T07:16:30.758Z,11.23
2022-11-07T07:19:00.844Z,11.29
2022-11-07T07:21:31.341Z,11.49
2022-11-07T07:23:58.303Z,11.48
2022-11-07T07:26:25.448Z,11.40
2022-11-07T07:28:52.163Z,11.60
2022-11-07T07:31:23.293Z,11.82
2022-11-07T07:33:50.297Z,11.94
2022-11-07T07:36:21.024Z,12.23
2022-11-07T07:38:50.276Z,12.24
2022-11-07T07:41:17.528Z,12.29
2022-11-07T07:43:44.228Z,12.34
2022-11-07T07:46:14.704Z,12.29
2022-11-07T07:48:41.690Z,12.38
2022-11-07T07:51:11.536Z,12.66
2022-11-07T07:54:00.443Z,12.83
2022-11-07T07:56:29.561Z,12.82
2022-11-07T07:59:05.337Z,12.83
2022-11-07T08:01:36.385Z,12.92
2022-11-07T08:04:04.667Z,13.05
2022-11-07T08:06:43.862Z,13.27
2022-11-07T08:09:18.051Z,13.48
2022-11-07T08:11:45.855Z,13.63
2022-11-07T08:14:20.202Z,13.70
2022-11-07T08:16:51.453Z,13.76
2022-11-07T08:19:21.382Z,14.18
2022-11-07T08:21:52.058Z,14.37
2022-11-07T08:24:22.233Z,14.35
2022-11-07T08:26:50.800Z,14.69
2022-11-07T08:29:17.638Z,14.59
2022-11-07T08:31:44.415Z,14.89
2022-11-07T08:34:23.520Z,14.83
2022-11-07T08:36:53.447Z,14.64
2022-11-07T08:39:26.215Z,14.75
2022-11-07T08:41:55.222Z,14.76
2022-11-07T08:44:26.095Z,14.89
2022-11-07T08:46:56.053Z,15.04
2022-11-07T08:49:26.040Z,15.34
2022-11-07T08:51:55.811Z,15.27
2022-11-07T08:54:22.746Z,15.33
2022-11-07T08:56:52.604Z,15.39
2022-11-07T08:59:20.524Z,15.45
2022-11-07T09:02:38.876Z,15.52
2022-11-07T09:04:44.777Z,15.60
2022-11-07T09:07:13.023Z,15.47
2022-11-07T09:09:44.812Z,15.49
2022-11-07T09:12:11.640Z,15.50
2022-11-07T09:14:38.543Z,15.69
2022-11-07T09:17:07.978Z,15.77
2022-11-07T09:19:35.018Z,15.77
2022-11-07T09:22:02.009Z,15.90
2022-11-07T09:24:28.621Z,15.94
2022-11-07T09:27:04.583Z,16.32
2022-11-07T09:29:31.395Z,16.20
2022-11-07T09:31:58.190Z,16.24
2022-11-07T09:34:25.960Z,16.16
2022-11-07T09:36:53.794Z,16.17
2022-11-07T09:39:24.764Z,16.23
2022-11-07T09:42:38.756Z,16.26
2022-11-07T09:45:05.671Z,16.43
2022-11-07T09:47:39.406Z,16.46
2022-11-07T09:50:28.821Z,16.48
2022-11-07T09:53:01.798Z,16.49
2022-11-07T09:55:48.711Z,16.66
2022-11-07T09:58:45.783Z,16.82
2022-11-07T10:01:16.650Z,16.70
2022-11-07T10:04:10.319Z,16.69
2022-11-07T10:06:49.307Z,16.85
2022-11-07T10:09:22.401Z,16.99
2022-11-07T10:12:10.160Z,17.02
2022-11-07T10:14:51.843Z,17.10
2022-11-07T10:17:53.888Z,17.07
2022-11-07T10:20:29.088Z,17.08
2022-11-07T10:23:15.914Z,17.13
2022-11-07T10:26:07.067Z,16.99
2022-11-07T10:28:57.852Z,16.74
2022-11-07T10:31:34.957Z,16.64
2022-11-07T10:34:41.723Z,16.48
2022-11-07T10:37:10.080Z,16.46
2022-11-07T10:39:49.742Z,16.42
2022-11-07T10:42:27.279Z,16.47
2022-11-07T10:45:01.417Z,16.46
2022-11-07T10:47:28.635Z,16.50
2022-11-07T10:49:59.705Z,16.46
2022-11-07T10:52:31.424Z,16.47
2022-11-07T10:55:21.965Z,16.54
2022-11-07T10:57:59.961Z,16.40
2022-11-07T11:00:36.289Z,16.48
2022-11-07T11:03:03.449Z,16.51
2022-11-07T11:05:44.253Z,16.38
2022-11-07T11:08:22.159Z,16.32
2022-11-07T11:10:51.933Z,16.42
2022-11-07T11:13:36.641Z,16.58
2022-11-07T11:16:23.190Z,16.65
2022-11-07T11:19:01.155Z,16.68
2022-11-07T11:21:44.649Z,16.70
2022-11-07T11:24:29.768Z,16.72
2022-11-07T11:27:04.345Z,16.65
2022-11-07T11:29:40.598Z,16.69
2022-11-07T11:32:18.084Z,16.79
2022-11-07T11:35:01.897Z,16.78
2022-11-07T11:37:28.928Z,16.68
2022-11-07T11:40:16.204Z,16.70
2022-11-07T11:43:04.717Z,16.81
2022-11-07T11:45:51.152Z,16.65
2022-11-07T11:48:39.564Z,16.85
2022-11-07T11:51:25.185Z,16.97
2022-11-07T11:53:52.252Z,16.86
2022-11-07T11:56:49.796Z,16.80
2022-11-07T11:59:47.638Z,16.90
2022-11-07T12:02:53.180Z,17.11
2022-11-07T12:05:35.741Z,17.05
2022-11-07T12:08:21.054Z,16.96
2022-11-07T12:11:13.906Z,17.02
2022-11-07T12:14:17.109Z,17.07
2022-11-07T12:17:13.341Z,17.07
2022-11-07T12:20:20.323Z,17.11
2022-11-07T12:22:53.044Z,17.14
2022-11-07T12:25:37.144Z,17.06
2022-11-07T12:28:31.975Z,17.12
2022-11-07T12:30:58.794Z,17.17
2022-11-07T12:33:51.007Z,17.16
2022-11-07T12:36:39.836Z,17.27
2022-11-07T12:39:54.124Z,17.13
2022-11-07T12:42:37.843Z,17.34
2022-11-07T12:45:17.181Z,17.21
2022-11-07T12:48:22.662Z,17.34
2022-11-07T12:51:09.020Z,17.22
2022-11-07T12:54:41.250Z,17.18
2022-11-07T12:57:20.057Z,17.20
2022-11-07T13:00:29.077Z,17.14
2022-11-07T13:03:05.550Z,17.22
2022-11-07T13:05:45.477Z,17.10
2022-11-07T13:08:27.001Z,17.13
2022-11-07T13:11:11.451Z,17.29
2022-11-07T13:14:12.327Z,17.26
2022-11-07T13:16:50.911Z,17.26
2022-11-07T13:19:40.695Z,17.23
2022-11-07T13:22:23.334Z,17.25
2022-11-07T13:25:16.642Z,17.22
2022-11-07T13:27:48.241Z,17.33
2022-11-07T13:30:17.441Z,17.52
2022-11-07T13:32:47.804Z,17.50
2022-11-07T13:35:50.691Z,17.42
2022-11-07T13:38:19.129Z,17.33
2022-11-07T13:40:54.951Z,17.33
2022-11-07T13:43:38.815Z,17.43
2022-11-07T13:46:16.827Z,17.33
2022-11-07T13:48:52.978Z,17.24
2022-11-07T13:51:40.000Z,17.49
2022-11-07T13:54:42.222Z,17.40
2022-11-07T13:57:31.604Z,17.33
2022-11-07T14:00:05.468Z,17.29
2022-11-07T14:02:34.168Z,17.32
2022-11-07T14:05:22.067Z,17.29
2022-11-07T14:07:58.237Z,17.21
2022-11-07T14:10:30.653Z,17.18
2022-11-07T14:13:23.839Z,17.07
2022-11-07T14:16:03.227Z,17.02
2022-11-07T14:18:37.495Z,17.08
2022-11-07T14:21:04.257Z,17.15
2022-11-07T14:23:32.925Z,17.16
2022-11-07T14:26:01.423Z,17.08
2022-11-07T14:28:41.405Z,17.06
2022-11-07T14:31:22.736Z,16.97
2022-11-07T14:33:56.694Z,17.02
2022-11-07T14:36:24.046Z,16.97
2022-11-07T14:38:59.765Z,17.06
2022-11-07T14:41:26.702Z,17.13
2022-11-07T14:43:53.831Z,17.13
2022-11-07T14:46:27.190Z,17.12
2022-11-07T14:49:00.075Z,17.18
2022-11-07T14:51:31.824Z,17.20
2022-11-07T14:54:06.399Z,17.14
2022-11-07T14:56:38.315Z,17.11
2022-11-07T14:59:07.300Z,17.11
2022-11-07T15:01:34.947Z,17.02
2022-11-07T15:04:24.698Z,16.98
2022-11-07T15:06:51.376Z,17.07
2022-11-07T15:09:18.019Z,17.06
2022-11-07T15:11:57.986Z,17.07
2022-11-07T15:14:36.437Z,17.01
2022-11-07T15:17:04.559Z,17.02
2022-11-07T15:19:33.473Z,16.98
2022-11-07T15:22:03.340Z,16.98
2022-11-07T15:24:38.255Z,16.87
2022-11-07T15:27:40.433Z,16.86
2022-11-07T15:30:33.982Z,16.69
2022-11-07T15:33:01.925Z,16.56
2022-11-07T15:35:45.050Z,16.52
2022-11-07T15:38:22.439Z,16.44
2022-11-07T15:40:50.318Z,16.31
2022-11-07T15:43:17.119Z,16.25
2022-11-07T15:45:45.626Z,16.30
2022-11-07T15:48:19.831Z,16.31
2022-11-07T15:50:48.772Z,16.17
2022-11-07T15:53:23.971Z,16.11
2022-11-07T15:56:12.386Z,16.15
2022-11-07T15:58:39.410Z,16.11
2022-11-07T16:01:13.140Z,15.98
2022-11-07T16:03:49.136Z,15.90
2022-11-07T16:06:32.832Z,15.86
2022-11-07T16:08:59.733Z,15.85
2022-11-07T16:11:27.436Z,15.77
2022-11-07T16:14:14.787Z,15.68
2022-11-07T16:16:48.767Z,15.67
2022-11-07T16:19:32.033Z,15.55
2022-11-07T16:21:58.793Z,15.42
2022-11-07T16:24:25.791Z,15.41
2022-11-07T16:26:52.888Z,15.42
2022-11-07T16:29:26.906Z,15.38
2022-11-07T16:31:53.710Z,15.26
2022-11-07T16:34:26.453Z,15.22
2022-11-07T16:36:53.928Z,15.20
2022-11-07T16:39:27.036Z,15.17
2022-11-07T16:42:03.327Z,15.22
2022-11-07T16:44:33.280Z,15.18
2022-11-07T16:47:08.924Z,15.07
2022-11-07T16:49:39.704Z,15.18
2022-11-07T16:52:14.705Z,15.12
2022-11-07T16:54:49.587Z,14.99
2022-11-07T16:57:25.124Z,14.89
2022-11-07T16:59:52.949Z,14.85
2022-11-07T17:02:25.715Z,14.76
2022-11-07T17:04:54.178Z,14.75
2022-11-07T17:07:23.493Z,14.69
2022-11-07T17:09:52.721Z,14.67
2022-11-07T17:12:25.494Z,14.68
2022-11-07T17:14:58.381Z,14.64
2022-11-07T17:17:30.039Z,14.59
2022-11-07T17:19:56.966Z,14.50
2022-11-07T17:22:23.786Z,14.47
2022-11-07T17:24:50.813Z,14.45
2022-11-07T17:27:26.718Z,14.56
2022-11-07T17:29:54.732Z,14.43
2022-11-07T17:32:25.499Z,14.58
2022-11-07T17:35:30.020Z,14.42
2022-11-07T17:37:51.165Z,14.44
2022-11-07T17:40:25.640Z,14.43
2022-11-07T17:42:52.488Z,14.35
2022-11-07T17:45:19.173Z,14.22
2022-11-07T17:47:46.074Z,14.14
2022-11-07T17:50:18.898Z,14.08
2022-11-07T17:52:45.709Z,14.20
2022-11-07T17:55:15.519Z,14.17
2022-11-07T17:57:45.949Z,14.08
2022-11-07T18:00:13.011Z,13.99
2022-11-07T18:02:45.586Z,13.93
2022-11-07T18:05:20.156Z,13.98
2022-11-07T18:07:47.193Z,13.84
2022-11-07T18:10:18.247Z,13.78
2022-11-07T18:12:48.186Z,13.83
2022-11-07T18:15:20.066Z,13.69
2022-11-07T18:17:46.916Z,13.75
2022-11-07T18:20:13.842Z,13.68
2022-11-07T18:22:40.626Z,13.71
2022-11-07T18:25:08.374Z,13.70
2022-11-07T18:27:36.065Z,13.60
2022-11-07T18:30:05.841Z,13.55
2022-11-07T18:32:42.068Z,13.58
2022-11-07T18:35:11.560Z,13.49
2022-11-07T18:37:44.388Z,13.60
2022-11-07T18:40:14.605Z,13.51
2022-11-07T18:42:48.294Z,13.50
2022-11-07T18:45:15.656Z,13.45
2022-11-07T18:47:42.557Z,13.43
2022-11-07T18:50:12.486Z,13.42
2022-11-07T18:52:39.600Z,13.33
2022-11-07T18:55:06.565Z,13.24
2022-11-07T18:57:33.400Z,13.26
2022-11-07T19:00:07.898Z,13.29
2022-11-07T19:02:54.365Z,13.20
2022-11-07T19:05:23.266Z,13.12
2022-11-07T19:07:50.046Z,13.08
2022-11-07T19:10:17.291Z,13.06
2022-11-07T19:12:51.938Z,13.06
2022-11-07T19:15:21.523Z,13.02
2022-11-07T19:17:53.311Z,13.08
2022-11-07T19:20:23.353Z,13.05
2022-11-07T19:22:50.094Z,13.00
2022-11-07T19:25:21.135Z,13.07
2022-11-07T19:27:49.690Z,13.10
2022-11-07T19:30:16.586Z,12.97
2022-11-07T19:32:43.730Z,12.84
2022-11-07T19:35:20.334Z,12.85
2022-11-07T19:37:49.851Z,13.07
2022-11-07T19:40:22.619Z,13.02
2022-11-07T19:42:52.117Z,12.89
2022-11-07T19:45:28.200Z,12.76
2022-11-07T19:47:57.910Z,12.89
2022-11-07T19:50:35.124Z,12.97
2022-11-07T19:53:01.955Z,12.78
2022-11-07T19:55:28.763Z,12.64
2022-11-07T19:57:58.044Z,12.64
2022-11-07T20:00:28.806Z,12.70
2022-11-07T20:02:55.891Z,12.60
2022-11-07T20:05:27.290Z,12.57
2022-11-07T20:08:02.190Z,12.54
2022-11-07T20:10:44.355Z,12.60
2022-11-07T20:13:21.858Z,12.56
2022-11-07T20:15:58.909Z,12.56
2022-11-07T20:18:29.521Z,12.53
2022-11-07T20:21:13.223Z,12.47
2022-11-07T20:23:42.879Z,12.41
2022-11-07T20:26:12.396Z,12.35
2022-11-07T20:28:43.278Z,12.34
2022-11-07T20:31:14.457Z,12.26
2022-11-07T20:33:41.733Z,12.24
2022-11-07T20:36:15.562Z,12.24
2022-11-07T20:38:46.460Z,12.22
2022-11-07T20:41:13.946Z,12.21
2022-11-07T20:43:41.405Z,12.16
2022-11-07T20:46:17.676Z,12.20
2022-11-07T20:48:44.820Z,12.23
2022-11-07T20:51:33.612Z,12.28
2022-11-07T20:54:00.628Z,12.18
2022-11-07T20:56:47.985Z,12.12
2022-11-07T20:59:23.743Z,12.14
2022-11-07T21:01:52.667Z,12.11
2022-11-07T21:04:20.504Z,12.18
2022-11-07T21:06:48.758Z,12.22
2022-11-07T21:09:15.713Z,12.20
2022-11-07T21:11:57.684Z,12.34
2022-11-07T21:14:28.250Z,12.06
2022-11-07T21:17:00.534Z,12.11
2022-11-07T21:19:29.416Z,12.12
2022-11-07T21:22:14.660Z,12.03
2022-11-07T21:24:41.623Z,11.93
2022-11-07T21:27:09.579Z,11.98
2022-11-07T21:29:46.172Z,12.21
2022-11-07T21:32:25.873Z,12.18
2022-11-07T21:34:53.254Z,12.10
2022-11-07T21:37:20.517Z,12.02
2022-11-07T21:39:51.688Z,11.94
2022-11-07T21:42:24.228Z,11.93
2022-11-07T21:44:53.789Z,12.05
2022-11-07T21:47:22.014Z,11.98
2022-11-07T21:49:49.900Z,11.96
2022-11-07T21:52:17.440Z,12.05
2022-11-07T21:54:49.728Z,12.02
2022-11-07T21:57:20.599Z,11.98
2022-11-07T21:59:47.425Z,11.98
2022-11-07T22:02:14.333Z,12.01
2022-11-07T22:04:41.773Z,12.10
2022-11-07T22:07:10.858Z,11.95
2022-11-07T22:09:43.342Z,11.90
2022-11-07T22:12:10.156Z,11.82
2022-11-07T22:14:42.635Z,11.81
2022-11-07T22:17:10.598Z,11.79
2022-11-07T22:19:37.338Z,11.79
2022-11-07T22:22:10.803Z,11.88
2022-11-07T22:24:37.672Z,11.91
2022-11-07T22:27:05.527Z,11.86
2022-11-07T22:29:32.398Z,11.91
2022-11-07T22:32:02.699Z,11.79
2022-11-07T22:34:33.290Z,11.89
2022-11-07T22:37:00.054Z,11.83
2022-11-07T22:39:26.808Z,11.87
2022-11-07T22:41:53.452Z,11.86
2022-11-07T22:44:20.158Z,11.75
2022-11-07T22:46:47.005Z,11.81
2022-11-07T22:49:13.976Z,11.78
2022-11-07T22:51:43.652Z,11.68
2022-11-07T22:54:16.453Z,11.66
2022-11-07T22:56:43.300Z,11.54
2022-11-07T22:59:12.220Z,11.60
2022-11-07T23:01:42.983Z,11.59
2022-11-07T23:04:15.665Z,11.66
2022-11-07T23:06:42.408Z,11.62
2022-11-07T23:09:12.663Z,11.55
2022-11-07T23:11:45.733Z,11.52
2022-11-07T23:14:18.402Z,11.44
2022-11-07T23:16:50.839Z,11.48
2022-11-07T23:19:23.057Z,11.51
2022-11-07T23:21:58.786Z,11.54
2022-11-07T23:24:25.683Z,11.65
2022-11-07T23:26:52.899Z,11.65
2022-11-07T23:29:23.079Z,11.54
2022-11-07T23:31:54.291Z,11.47
2022-11-07T23:34:30.541Z,11.54
2022-11-07T23:36:57.474Z,11.51
2022-11-07T23:39:27.335Z,11.47
2022-11-07T23:41:57.962Z,11.58
2022-11-07T23:44:27.683Z,11.65
2022-11-07T23:47:16.181Z,11.50
2022-11-07T23:50:07.328Z,11.45
2022-11-07T23:52:34.454Z,11.51
2022-11-07T23:55:19.906Z,11.54
2022-11-07T23:58:09.805Z,11.47
